createdAt,value
2022-08-11T00:00:53.545Z,16.80
2022-08-11T00:05:59.041Z,16.60
2022-08-11T00:11:05.877Z,16.30
2022-08-11T00:16:14.789Z,16.10
2022-08-11T00:21:35.452Z,16.00
2022-08-11T00:26:49.875Z,15.90
2022-08-11T00:31:55.711Z,15.90
2022-08-11T00:37:04.293Z,15.80
2022-08-11T00:42:24.398Z,15.70
2022-08-11T00:47:44.119Z,15.70
2022-08-11T00:53:09.671Z,15.70
2022-08-11T00:58:57.977Z,15.70
2022-08-11T01:04:24.923Z,15.60
2022-08-11T01:09:49.745Z,15.50
2022-08-11T01:15:31.772Z,15.50
2022-08-11T01:21:20.013Z,15.30
2022-08-11T01:27:19.174Z,15.10
2022-08-11T01:33:07.971Z,15.10
2022-08-11T01:38:48.536Z,15.00
2022-08-11T01:44:47.924Z,14.80
2022-08-11T01:50:08.058Z,14.80
2022-08-11T01:55:24.240Z,14.60
2022-08-11T02:00:30.737Z,14.50
2022-08-11T02:06:23.542Z,14.30
2022-08-11T02:11:35.181Z,14.20
2022-08-11T02:16:50.181Z,14.10
2022-08-11T02:22:18.942Z,14.00
2022-08-11T02:27:27.165Z,13.90
2022-08-11T02:32:53.711Z,13.80
2022-08-11T02:38:12.957Z,13.70
2022-08-11T02:43:29.434Z,13.60
2022-08-11T02:48:58.863Z,13.50
2022-08-11T02:54:12.216Z,13.40
2022-08-11T02:59:49.248Z,13.40
2022-08-11T03:05:07.372Z,13.40
2022-08-11T03:10:19.558Z,13.40
2022-08-11T03:16:02.679Z,13.30
2022-08-11T03:21:15.847Z,13.20
2022-08-11T03:26:29.341Z,13.10
2022-08-11T03:31:38.509Z,13.00
2022-08-11T03:37:43.908Z,12.80
2022-08-11T03:42:54.849Z,12.70
2022-08-11T03:48:15.448Z,12.70
2022-08-11T03:53:28.211Z,12.70
2022-08-11T03:59:09.013Z,12.90
2022-08-11T04:04:47.725Z,13.00
2022-08-11T04:10:41.953Z,13.10
2022-08-11T04:16:11.303Z,13.10
2022-08-11T04:21:51.692Z,13.00
2022-08-11T04:27:19.067Z,13.00
2022-08-11T04:32:50.625Z,12.90
2022-08-11T04:38:25.597Z,13.00
2022-08-11T04:44:05.811Z,13.20
2022-08-11T04:50:10.594Z,13.40
2022-08-11T04:56:04.254Z,13.60
2022-08-11T05:01:44.177Z,13.80
2022-08-11T05:07:18.908Z,13.90
2022-08-11T05:12:31.140Z,14.00
2022-08-11T05:18:08.097Z,14.10
2022-08-11T05:23:31.583Z,14.20
2022-08-11T05:28:53.947Z,14.40
2022-08-11T05:34:20.083Z,14.60
2022-08-11T05:39:44.654Z,14.70
2022-08-11T05:45:15.306Z,14.90
2022-08-11T05:50:38.414Z,15.10
2022-08-11T05:56:04.085Z,15.50
2022-08-11T06:01:13.567Z,15.70
2022-08-11T06:06:17.310Z,15.80
2022-08-11T06:11:43.870Z,15.90
2022-08-11T06:16:50.355Z,16.20
2022-08-11T06:21:54.617Z,18.70
2022-08-11T06:27:15.825Z,24.70
2022-08-11T06:32:23.630Z,28.40
2022-08-11T06:37:41.227Z,30.30
2022-08-11T06:42:58.832Z,31.40
2022-08-11T06:48:03.474Z,33.10
2022-08-11T06:53:10.064Z,32.70
2022-08-11T06:58:37.543Z,33.00
2022-08-11T07:03:46.571Z,33.40
2022-08-11T07:09:41.749Z,33.70
2022-08-11T07:15:23.548Z,34.30
2022-08-11T07:20:46.646Z,33.40
2022-08-11T07:26:11.794Z,35.40
2022-08-11T07:31:23.543Z,34.70
2022-08-11T07:36:29.659Z,34.70
2022-08-11T07:41:39.234Z,34.80
2022-08-11T07:47:03.268Z,35.70
2022-08-11T07:52:24.650Z,35.50
2022-08-11T07:58:13.662Z,35.40
2022-08-11T08:03:29.285Z,35.90
2022-08-11T08:08:51.584Z,34.40
2022-08-11T08:14:13.389Z,33.50
2022-08-11T08:19:20.480Z,33.60
2022-08-11T08:24:24.141Z,34.20
2022-08-11T08:29:46.756Z,34.60
2022-08-11T08:34:55.678Z,34.90
2022-08-11T08:39:59.565Z,34.20
2022-08-11T08:45:07.761Z,34.30
2022-08-11T08:50:16.928Z,34.10
2022-08-11T08:55:24.774Z,33.30
2022-08-11T09:00:40.838Z,33.10
2022-08-11T09:05:45.947Z,33.20
2022-08-11T09:11:14.086Z,33.80
2022-08-11T09:16:21.695Z,33.60
2022-08-11T09:21:44.526Z,33.70
2022-08-11T09:27:04.305Z,33.90
2022-08-11T09:32:09.035Z,33.60
2022-08-11T09:37:54.636Z,33.70
2022-08-11T09:43:22.573Z,33.70
2022-08-11T09:48:27.800Z,33.40
2022-08-11T09:53:40.945Z,33.60
2022-08-11T09:58:46.604Z,33.50
2022-08-11T10:03:50.725Z,32.20
2022-08-11T10:08:56.636Z,31.80
2022-08-11T10:14:33.519Z,31.70
2022-08-11T10:19:39.554Z,30.50
2022-08-11T10:25:03.732Z,30.40
2022-08-11T10:30:26.862Z,30.30
2022-08-11T10:35:34.634Z,29.70
2022-08-11T10:40:44.803Z,29.40
2022-08-11T10:46:06.832Z,29.40
2022-08-11T10:51:50.463Z,29.90
2022-08-11T10:57:02.807Z,29.50
2022-08-11T11:02:06.628Z,29.50
2022-08-11T11:07:20.798Z,30.10
2022-08-11T11:12:48.615Z,30.20
2022-08-11T11:18:01.972Z,29.90
2022-08-11T11:23:08.294Z,30.10
2022-08-11T11:28:35.945Z,30.00
2022-08-11T11:34:12.109Z,29.90
2022-08-11T11:39:23.416Z,29.70
2022-08-11T11:44:29.823Z,30.20
2022-08-11T11:49:35.521Z,30.40
2022-08-11T11:54:41.874Z,30.20
2022-08-11T12:00:21.717Z,30.40
2022-08-11T12:05:27.617Z,29.90
2022-08-11T12:10:32.414Z,30.50
2022-08-11T12:16:31.638Z,30.40
2022-08-11T12:21:05.970Z,30.40
2022-08-11T12:26:27.650Z,30.10
2022-08-11T12:31:33.586Z,30.30
2022-08-11T12:36:46.529Z,30.50
2022-08-11T12:42:07.781Z,30.50
2022-08-11T12:47:14.509Z,30.50
2022-08-11T12:52:23.477Z,30.40
2022-08-11T12:57:54.409Z,30.50
2022-08-11T13:03:19.379Z,30.30
2022-08-11T13:08:25.374Z,29.90
2022-08-11T13:13:55.085Z,30.10
2022-08-11T13:18:58.912Z,29.80
2022-08-11T13:24:03.766Z,29.80
2022-08-11T13:29:07.261Z,30.00
2022-08-11T13:34:20.750Z,30.20
2022-08-11T13:39:32.821Z,30.20
2022-08-11T13:44:40.709Z,30.10
2022-08-11T13:49:48.058Z,29.90
2022-08-11T13:54:55.890Z,29.70
2022-08-11T14:00:12.931Z,29.50
2022-08-11T14:05:32.739Z,29.80
2022-08-11T14:10:40.243Z,30.00
2022-08-11T14:15:46.536Z,29.90
2022-08-11T14:21:20.812Z,29.90
2022-08-11T14:26:27.130Z,29.80
2022-08-11T14:31:34.380Z,29.60
2022-08-11T14:36:53.541Z,29.60
2022-08-11T14:42:23.391Z,29.40
2022-08-11T14:47:55.078Z,29.40
2022-08-11T14:53:01.814Z,29.30
2022-08-11T14:58:06.854Z,29.00
2022-08-11T15:03:14.296Z,29.30
2022-08-11T15:08:41.252Z,29.30
2022-08-11T15:13:50.652Z,29.10
2022-08-11T15:18:54.078Z,29.10
2022-08-11T15:24:16.202Z,28.90
2022-08-11T15:29:44.988Z,28.80
2022-08-11T15:35:09.489Z,28.80
2022-08-11T15:40:37.291Z,28.80
2022-08-11T15:45:51.762Z,28.70
2022-08-11T15:51:04.671Z,28.50
2022-08-11T15:56:18.162Z,28.30
2022-08-11T16:01:43.842Z,28.30
2022-08-11T16:06:55.796Z,28.20
2022-08-11T16:12:05.072Z,28.20
2022-08-11T16:17:18.130Z,28.20
2022-08-11T16:22:37.912Z,28.10
2022-08-11T16:27:46.524Z,28.10
2022-08-11T16:32:53.158Z,27.80
2022-08-11T16:38:21.031Z,27.70
2022-08-11T16:43:48.659Z,27.50
2022-08-11T16:48:56.124Z,27.30
2022-08-11T16:54:05.529Z,27.20
2022-08-11T16:59:17.348Z,27.10
2022-08-11T17:04:50.976Z,27.00
2022-08-11T17:10:31.824Z,26.90
2022-08-11T17:16:09.953Z,26.80
2022-08-11T17:21:19.253Z,26.60
2022-08-11T17:26:49.288Z,26.50
2022-08-11T17:32:14.030Z,26.30
2022-08-11T17:37:19.580Z,26.20
2022-08-11T17:42:42.102Z,26.00
2022-08-11T17:48:08.399Z,25.90
2022-08-11T17:53:32.087Z,25.70
2022-08-11T17:58:54.775Z,25.50
2022-08-11T18:04:01.181Z,25.20
2022-08-11T18:09:24.494Z,25.00
2022-08-11T18:14:46.951Z,24.80
2022-08-11T18:20:10.240Z,24.70
2022-08-11T18:25:36.085Z,24.40
2022-08-11T18:31:03.676Z,23.90
2022-08-11T18:36:32.784Z,23.50
2022-08-11T18:41:56.373Z,23.10
2022-08-11T18:47:21.240Z,22.70
2022-08-11T18:52:49.649Z,22.10
2022-08-11T18:58:12.241Z,21.60
2022-08-11T19:03:43.187Z,21.00
2022-08-11T19:09:18.958Z,20.40
2022-08-11T19:14:41.681Z,20.00
2022-08-11T19:20:05.097Z,19.70
2022-08-11T19:25:29.707Z,19.40
2022-08-11T19:30:52.676Z,19.20
2022-08-11T19:36:14.258Z,19.00
2022-08-11T19:41:52.070Z,19.00
2022-08-11T19:47:20.328Z,19.30
2022-08-11T19:52:41.945Z,19.30
2022-08-11T19:58:06.980Z,19.20
2022-08-11T20:03:30.491Z,19.10
2022-08-11T20:08:56.450Z,19.10
2022-08-11T20:14:21.682Z,19.00
2022-08-11T20:19:55.277Z,18.80
2022-08-11T20:25:17.565Z,18.60
2022-08-11T20:30:39.849Z,18.30
2022-08-11T20:36:02.552Z,18.10
2022-08-11T20:41:24.698Z,18.00
2022-08-11T20:46:48.760Z,17.80
2022-08-11T20:52:11.145Z,17.60
2022-08-11T20:58:00.097Z,17.50
2022-08-11T21:03:36.421Z,17.40
2022-08-11T21:09:01.979Z,17.30
2022-08-11T21:14:31.104Z,17.30
2022-08-11T21:20:06.585Z,17.20
2022-08-11T21:25:29.882Z,17.10
2022-08-11T21:30:57.641Z,16.90
2022-08-11T21:36:26.335Z,17.00
2022-08-11T21:41:49.428Z,17.10
2022-08-11T21:47:10.942Z,17.30
2022-08-11T21:52:33.516Z,17.50
2022-08-11T21:57:56.195Z,17.80
2022-08-11T22:03:18.245Z,17.80
2022-08-11T22:08:41.016Z,17.80
2022-08-11T22:14:07.853Z,17.70
2022-08-11T22:19:29.289Z,17.40
2022-08-11T22:24:53.171Z,17.00
2022-08-11T22:30:14.136Z,16.70
2022-08-11T22:35:36.921Z,16.60
2022-08-11T22:40:59.267Z,16.50
2022-08-11T22:46:20.092Z,16.50
2022-08-11T22:51:42.442Z,16.50
2022-08-11T22:57:05.086Z,16.60
2022-08-11T23:02:26.189Z,16.90
2022-08-11T23:07:49.720Z,16.90
2022-08-11T23:13:14.486Z,17.20
2022-08-11T23:18:43.556Z,17.50
2022-08-11T23:24:05.663Z,17.60
2022-08-11T23:29:29.846Z,17.50
2022-08-11T23:35:36.957Z,17.10
2022-08-11T23:40:35.450Z,16.80
2022-08-11T23:45:57.835Z,16.60
2022-08-11T23:51:19.796Z,16.40
2022-08-11T23:56:40.935Z,16.40
